createdAt,value
2023-02-11T00:01:26.167Z,-4.08
2023-02-11T00:03:54.582Z,-4.01
2023-02-11T00:06:23.246Z,-4.16
2023-02-11T00:08:51.668Z,-4.27
2023-02-11T00:11:21.982Z,-4.39
2023-02-11T00:13:50.251Z,-4.61
2023-02-11T00:16:20.972Z,-4.68
2023-02-11T00:18:53.192Z,-4.56
2023-02-11T00:21:25.859Z,-4.56
2023-02-11T00:23:55.021Z,-4.60
2023-02-11T00:26:25.450Z,-4.41
2023-02-11T00:28:54.781Z,-4.43
2023-02-11T00:31:24.460Z,-4.54
2023-02-11T00:33:55.077Z,-4.57
2023-02-11T00:36:26.417Z,-4.74
2023-02-11T00:38:56.346Z,-4.73
2023-02-11T00:41:25.217Z,-4.84
2023-02-11T00:43:54.024Z,-5.05
2023-02-11T00:46:22.490Z,-5.20
2023-02-11T00:48:51.935Z,-5.20
2023-02-11T00:51:22.050Z,-5.25
2023-02-11T00:53:50.548Z,-5.32
2023-02-11T00:56:18.913Z,-5.40
2023-02-11T00:58:47.048Z,-5.39
2023-02-11T01:01:16.272Z,-5.22
2023-02-11T01:03:44.643Z,-5.03
2023-02-11T01:06:13.353Z,-4.92
2023-02-11T01:08:43.199Z,-4.73
2023-02-11T01:11:16.374Z,-4.73
2023-02-11T01:13:46.184Z,-4.91
2023-02-11T01:16:14.973Z,-5.12
2023-02-11T01:18:44.487Z,-5.20
2023-02-11T01:21:13.111Z,-5.36
2023-02-11T01:23:43.174Z,-5.47
2023-02-11T01:26:11.662Z,-5.55
2023-02-11T01:28:40.356Z,-5.56
2023-02-11T01:31:08.842Z,-5.62
2023-02-11T01:33:37.637Z,-5.45
2023-02-11T01:36:07.222Z,-5.49
2023-02-11T01:38:36.358Z,-5.56
2023-02-11T01:41:08.396Z,-5.66
2023-02-11T01:43:39.723Z,-5.72
2023-02-11T01:46:29.542Z,-5.75
2023-02-11T01:49:01.055Z,-5.88
2023-02-11T01:51:33.890Z,-6.02
2023-02-11T01:54:20.423Z,-6.03
2023-02-11T01:57:10.934Z,-6.13
2023-02-11T01:59:42.731Z,-6.34
2023-02-11T02:02:15.147Z,-6.26
2023-02-11T02:04:50.204Z,-6.18
2023-02-11T02:07:24.430Z,-6.09
2023-02-11T02:10:00.240Z,-6.03
2023-02-11T02:12:29.881Z,-5.94
2023-02-11T02:15:23.514Z,-5.89
2023-02-11T02:18:00.848Z,-5.87
2023-02-11T02:21:04.810Z,-5.84
2023-02-11T02:23:42.518Z,-5.79
2023-02-11T02:26:36.403Z,-5.75
2023-02-11T02:29:39.457Z,-5.75
2023-02-11T02:32:31.376Z,-5.65
2023-02-11T02:35:09.751Z,-5.58
2023-02-11T02:37:41.272Z,-5.42
2023-02-11T02:40:15.382Z,-5.43
2023-02-11T02:42:45.273Z,-5.48
2023-02-11T02:45:15.148Z,-5.67
2023-02-11T02:47:44.815Z,-5.63
2023-02-11T02:50:16.604Z,-5.62
2023-02-11T02:52:57.479Z,-5.62
2023-02-11T02:55:41.226Z,-5.56
2023-02-11T02:58:49.736Z,-5.60
2023-02-11T03:01:29.654Z,-5.73
2023-02-11T03:04:07.202Z,-5.90
2023-02-11T03:06:47.705Z,-5.88
2023-02-11T03:09:20.395Z,-5.94
2023-02-11T03:11:48.638Z,-6.01
2023-02-11T03:14:19.888Z,-6.02
2023-02-11T03:16:50.334Z,-5.90
2023-02-11T03:19:23.941Z,-5.83
2023-02-11T03:21:54.392Z,-5.84
2023-02-11T03:24:29.624Z,-5.82
2023-02-11T03:27:00.962Z,-5.68
2023-02-11T03:29:37.320Z,-5.66
2023-02-11T03:32:16.266Z,-5.53
2023-02-11T03:34:52.509Z,-5.50
2023-02-11T03:37:25.545Z,-5.57
2023-02-11T03:39:58.698Z,-5.69
2023-02-11T03:42:33.904Z,-5.67
2023-02-11T03:45:08.084Z,-5.88
2023-02-11T03:47:40.838Z,-5.96
2023-02-11T03:50:14.096Z,-6.07
2023-02-11T03:52:42.631Z,-6.01
2023-02-11T03:55:16.689Z,-6.02
2023-02-11T03:57:45.091Z,-5.99
2023-02-11T04:00:14.244Z,-5.95
2023-02-11T04:02:43.636Z,-6.06
2023-02-11T04:05:16.515Z,-6.11
2023-02-11T04:07:44.931Z,-6.18
2023-02-11T04:10:13.652Z,-6.10
2023-02-11T04:12:42.040Z,-6.07
2023-02-11T04:15:10.951Z,-6.12
2023-02-11T04:17:39.204Z,-6.08
2023-02-11T04:20:07.819Z,-6.08
2023-02-11T04:22:37.569Z,-6.24
2023-02-11T04:25:06.253Z,-6.48
2023-02-11T04:27:34.837Z,-6.76
2023-02-11T04:30:03.522Z,-6.90
2023-02-11T04:32:32.030Z,-6.89
2023-02-11T04:35:00.314Z,-6.74
2023-02-11T04:37:28.718Z,-6.73
2023-02-11T04:39:58.524Z,-6.76
2023-02-11T04:42:26.816Z,-6.75
2023-02-11T04:44:55.252Z,-6.77
2023-02-11T04:47:23.352Z,-6.85
2023-02-11T04:49:51.600Z,-7.01
2023-02-11T04:52:19.915Z,-7.10
2023-02-11T04:54:48.302Z,-7.12
2023-02-11T04:57:18.033Z,-7.04
2023-02-11T04:59:46.308Z,-7.08
2023-02-11T05:02:14.773Z,-7.07
2023-02-11T05:04:43.432Z,-6.96
2023-02-11T05:07:11.784Z,-6.85
2023-02-11T05:09:40.349Z,-6.73
2023-02-11T05:12:09.074Z,-6.79
2023-02-11T05:14:38.787Z,-6.85
2023-02-11T05:17:07.076Z,-6.74
2023-02-11T05:19:35.424Z,-6.60
2023-02-11T05:22:03.938Z,-6.60
2023-02-11T05:24:33.177Z,-6.49
2023-02-11T05:27:01.883Z,-6.23
2023-02-11T05:29:30.374Z,-5.85
2023-02-11T05:32:00.284Z,-5.32
2023-02-11T05:34:28.560Z,-4.88
2023-02-11T05:36:57.082Z,-4.58
2023-02-11T05:39:25.573Z,-4.50
2023-02-11T05:41:53.831Z,-4.64
2023-02-11T05:44:21.991Z,-4.70
2023-02-11T05:46:51.294Z,-4.63
2023-02-11T05:49:20.854Z,-4.43
2023-02-11T05:51:49.078Z,-3.86
2023-02-11T05:54:17.651Z,-3.20
2023-02-11T05:56:46.106Z,-2.81
2023-02-11T05:59:15.559Z,-2.54
2023-02-11T06:01:44.234Z,-2.25
2023-02-11T06:04:12.755Z,-2.17
2023-02-11T06:06:42.904Z,-1.89
2023-02-11T06:09:11.972Z,-1.76
2023-02-11T06:11:41.307Z,-1.66
2023-02-11T06:14:10.070Z,-1.59
2023-02-11T06:16:38.692Z,-1.63
2023-02-11T06:19:07.076Z,-1.96
2023-02-11T06:21:43.277Z,-2.19
2023-02-11T06:24:14.206Z,-2.32
2023-02-11T06:26:42.415Z,-2.58
2023-02-11T06:29:10.955Z,-2.64
2023-02-11T06:31:39.953Z,-2.76
2023-02-11T06:34:08.775Z,-2.98
2023-02-11T06:36:37.437Z,-3.10
2023-02-11T06:39:06.536Z,-3.20
2023-02-11T06:41:36.340Z,-3.25
2023-02-11T06:44:04.709Z,-3.22
2023-02-11T06:46:33.230Z,-3.38
2023-02-11T06:49:01.605Z,-3.38
2023-02-11T06:51:29.960Z,-3.39
2023-02-11T06:53:58.168Z,-3.32
2023-02-11T06:56:31.730Z,-3.36
2023-02-11T06:59:01.875Z,-3.22
2023-02-11T07:01:30.957Z,-3.20
2023-02-11T07:03:59.493Z,-3.15
2023-02-11T07:06:29.322Z,-3.38
2023-02-11T07:08:57.874Z,-3.39
2023-02-11T07:11:28.575Z,-3.20
2023-02-11T07:14:01.230Z,-3.01
2023-02-11T07:16:31.462Z,-2.92
2023-02-11T07:19:00.133Z,-3.10
2023-02-11T07:21:28.670Z,-3.24
2023-02-11T07:23:57.084Z,-3.15
2023-02-11T07:26:25.882Z,-2.99
2023-02-11T07:28:55.358Z,-2.77
2023-02-11T07:31:25.408Z,-2.68
2023-02-11T07:33:56.717Z,-2.51
2023-02-11T07:36:25.308Z,-2.47
2023-02-11T07:38:54.200Z,-2.35
2023-02-11T07:41:25.225Z,-2.22
2023-02-11T07:43:54.473Z,-2.11
2023-02-11T07:46:25.213Z,-2.02
2023-02-11T07:48:55.355Z,-2.08
2023-02-11T07:51:25.519Z,-1.98
2023-02-11T07:53:55.440Z,-1.84
2023-02-11T07:56:24.295Z,-1.85
2023-02-11T07:58:52.991Z,-1.72
2023-02-11T08:01:25.367Z,-1.64
2023-02-11T08:03:55.865Z,-1.52
2023-02-11T08:06:25.552Z,-1.41
2023-02-11T08:08:53.861Z,-1.38
2023-02-11T08:11:23.324Z,-1.30
2023-02-11T08:13:51.712Z,-1.32
2023-02-11T08:16:22.435Z,-1.25
2023-02-11T08:18:51.409Z,-1.22
2023-02-11T08:21:22.093Z,-1.09
2023-02-11T08:23:50.944Z,-1.08
2023-02-11T08:26:21.571Z,-1.07
2023-02-11T08:28:51.550Z,-1.02
2023-02-11T08:31:21.712Z,-0.88
2023-02-11T08:33:50.648Z,-0.70
2023-02-11T08:36:22.091Z,-0.58
2023-02-11T08:38:50.259Z,-0.57
2023-02-11T08:48:52.243Z,-0.50
2023-02-11T08:51:24.504Z,-0.28
2023-02-11T08:53:53.177Z,-0.15
2023-02-11T08:56:23.325Z,-0.06
2023-02-11T08:58:52.100Z,0.09
2023-02-11T09:01:24.096Z,0.11
2023-02-11T09:03:52.325Z,0.36
2023-02-11T09:06:23.025Z,0.38
2023-02-11T09:08:54.180Z,0.31
2023-02-11T09:11:27.474Z,0.45
2023-02-11T09:13:55.757Z,0.47
2023-02-11T09:16:26.144Z,0.59
2023-02-11T09:18:55.652Z,0.64
2023-02-11T09:21:25.655Z,0.74
2023-02-11T09:23:54.183Z,0.74
2023-02-11T09:26:24.417Z,0.76
2023-02-11T09:28:52.985Z,0.73
2023-02-11T09:31:23.685Z,0.68
2023-02-11T09:33:56.550Z,0.73
2023-02-11T09:36:28.814Z,0.65
2023-02-11T09:38:57.269Z,0.79
2023-02-11T09:41:42.905Z,1.01
2023-02-11T09:44:19.774Z,0.91
2023-02-11T09:46:55.020Z,0.94
2023-02-11T09:49:30.568Z,0.99
2023-02-11T09:52:06.380Z,1.04
2023-02-11T09:54:38.926Z,1.19
2023-02-11T09:57:26.490Z,1.21
2023-02-11T09:59:57.291Z,1.27
2023-02-11T10:02:32.072Z,1.24
2023-02-11T10:05:46.834Z,1.51
2023-02-11T10:08:28.720Z,1.56
2023-02-11T10:11:04.565Z,1.54
2023-02-11T10:13:49.007Z,1.63
2023-02-11T10:16:31.363Z,1.52
2023-02-11T10:19:30.765Z,1.67
2023-02-11T10:22:09.347Z,1.87
2023-02-11T10:24:40.402Z,1.98
2023-02-11T10:27:19.430Z,1.89
2023-02-11T10:29:53.749Z,2.14
2023-02-11T10:32:37.719Z,2.30
2023-02-11T10:35:18.539Z,2.42
2023-02-11T10:37:47.100Z,2.47
2023-02-11T10:40:19.557Z,2.35
2023-02-11T10:42:55.811Z,2.41
2023-02-11T10:45:30.110Z,2.51
2023-02-11T10:48:02.285Z,2.61
2023-02-11T10:50:33.679Z,2.53
2023-02-11T10:53:14.352Z,2.54
2023-02-11T10:55:52.966Z,2.61
2023-02-11T10:58:27.945Z,2.78
2023-02-11T11:00:58.023Z,2.85
2023-02-11T11:03:30.718Z,2.95
2023-02-11T11:06:01.625Z,3.13
2023-02-11T11:08:41.996Z,3.14
2023-02-11T11:11:13.467Z,3.12
2023-02-11T11:13:43.466Z,3.04
2023-02-11T11:16:19.786Z,3.04
2023-02-11T11:18:49.741Z,3.11
2023-02-11T11:21:21.848Z,3.17
2023-02-11T11:23:54.081Z,3.10
2023-02-11T11:26:25.529Z,3.07
2023-02-11T11:29:00.095Z,3.14
2023-02-11T11:31:32.268Z,3.20
2023-02-11T11:34:02.372Z,3.31
2023-02-11T11:36:37.272Z,3.40
2023-02-11T11:39:23.177Z,3.43
2023-02-11T11:41:55.896Z,3.31
2023-02-11T11:44:32.741Z,3.29
2023-02-11T11:47:23.274Z,3.31
2023-02-11T11:50:07.054Z,3.35
2023-02-11T11:52:41.050Z,3.47
2023-02-11T11:55:18.325Z,3.27
2023-02-11T11:57:51.226Z,3.31
2023-02-11T12:00:22.284Z,3.49
2023-02-11T12:03:26.073Z,3.41
2023-02-11T12:06:09.269Z,3.55
2023-02-11T12:08:48.177Z,3.65
2023-02-11T12:11:27.465Z,3.60
2023-02-11T12:14:13.407Z,3.60
2023-02-11T12:16:52.815Z,3.75
2023-02-11T12:19:48.006Z,3.73
2023-02-11T12:22:28.462Z,3.90
2023-02-11T12:25:06.834Z,3.90
2023-02-11T12:27:47.596Z,3.79
2023-02-11T12:30:43.134Z,3.91
2023-02-11T12:33:24.696Z,3.80
2023-02-11T12:36:01.104Z,3.88
2023-02-11T12:38:54.780Z,3.95
2023-02-11T12:42:00.397Z,3.90
2023-02-11T12:44:40.719Z,3.89
2023-02-11T12:47:25.394Z,3.90
2023-02-11T12:50:15.495Z,3.78
2023-02-11T12:53:04.596Z,3.87
2023-02-11T12:55:38.182Z,3.81
2023-02-11T12:58:14.897Z,3.74
2023-02-11T13:00:50.118Z,3.79
2023-02-11T13:03:27.414Z,3.89
2023-02-11T13:06:01.316Z,3.80
2023-02-11T13:08:33.633Z,3.83
2023-02-11T13:11:05.368Z,3.80
2023-02-11T13:13:40.610Z,3.75
2023-02-11T13:16:18.591Z,3.77
2023-02-11T13:18:53.705Z,3.81
2023-02-11T13:21:33.731Z,3.80
2023-02-11T13:24:14.726Z,3.83
2023-02-11T13:26:52.177Z,3.73
2023-02-11T13:29:42.439Z,3.68
2023-02-11T13:32:12.852Z,3.68
2023-02-11T13:35:01.702Z,3.19
2023-02-11T13:37:36.680Z,3.19
2023-02-11T13:40:08.902Z,3.05
2023-02-11T13:42:52.551Z,2.88
2023-02-11T13:45:34.991Z,2.73
2023-02-11T13:48:06.148Z,2.71
2023-02-11T13:50:39.729Z,2.62
2023-02-11T13:53:09.560Z,2.65
2023-02-11T13:55:38.233Z,2.71
2023-02-11T13:58:36.565Z,2.57
2023-02-11T14:01:05.808Z,2.57
2023-02-11T14:03:53.443Z,2.59
2023-02-11T14:06:43.128Z,2.58
2023-02-11T14:09:42.049Z,2.60
2023-02-11T14:12:35.541Z,2.51
2023-02-11T14:15:21.231Z,2.50
2023-02-11T14:17:49.522Z,2.46
2023-02-11T14:20:48.347Z,2.35
2023-02-11T14:23:30.013Z,2.26
2023-02-11T14:26:27.386Z,2.28
2023-02-11T14:29:04.113Z,2.26
2023-02-11T14:31:41.112Z,2.29
2023-02-11T14:34:31.491Z,2.23
2023-02-11T14:37:10.071Z,2.15
2023-02-11T14:39:55.963Z,2.09
2023-02-11T14:42:27.724Z,2.06
2023-02-11T14:45:06.529Z,1.98
2023-02-11T14:47:43.327Z,1.90
2023-02-11T14:50:27.522Z,1.86
2023-02-11T14:52:57.995Z,1.82
2023-02-11T14:55:33.418Z,1.76
2023-02-11T14:58:17.143Z,1.68
2023-02-11T15:00:55.653Z,1.66
2023-02-11T15:03:30.673Z,1.55
2023-02-11T15:06:01.389Z,1.52
2023-02-11T15:08:31.910Z,1.40
2023-02-11T15:11:04.227Z,1.32
2023-02-11T15:13:34.342Z,1.26
2023-02-11T15:16:08.470Z,1.22
2023-02-11T15:18:41.062Z,1.09
2023-02-11T15:21:10.426Z,1.03
2023-02-11T15:23:41.120Z,0.96
2023-02-11T15:26:16.068Z,0.79
2023-02-11T15:28:52.744Z,0.74
2023-02-11T15:31:24.479Z,0.66
2023-02-11T15:33:53.812Z,0.56
2023-02-11T15:36:28.679Z,0.52
2023-02-11T15:39:19.637Z,0.47
2023-02-11T15:41:49.457Z,0.42
2023-02-11T15:44:32.866Z,0.43
2023-02-11T15:47:01.221Z,0.29
2023-02-11T15:49:29.754Z,0.18
2023-02-11T15:51:59.032Z,0.31
2023-02-11T15:54:32.138Z,0.17
2023-02-11T15:57:08.871Z,0.12
2023-02-11T15:59:40.273Z,-0.01
2023-02-11T16:02:17.623Z,-0.12
2023-02-11T16:04:52.367Z,-0.16
2023-02-11T16:07:40.704Z,-0.26
2023-02-11T16:10:23.400Z,-0.34
2023-02-11T16:13:03.663Z,-0.29
2023-02-11T16:15:54.012Z,-0.22
2023-02-11T16:18:42.457Z,-0.31
2023-02-11T16:21:17.393Z,-0.38
2023-02-11T16:23:52.250Z,-0.47
2023-02-11T16:26:27.990Z,-0.50
2023-02-11T16:29:07.189Z,-0.48
2023-02-11T16:31:37.508Z,-0.46
2023-02-11T16:34:13.734Z,-0.22
2023-02-11T16:36:41.963Z,-0.21
2023-02-11T16:39:10.548Z,-0.22
2023-02-11T16:41:41.861Z,-0.20
2023-02-11T16:44:11.676Z,-0.21
2023-02-11T16:46:40.350Z,-0.20
2023-02-11T16:49:12.221Z,-0.09
2023-02-11T16:51:42.732Z,-0.05
2023-02-11T16:54:16.199Z,-0.01
2023-02-11T16:56:44.906Z,0.02
2023-02-11T16:59:14.692Z,0.12
2023-02-11T17:01:46.241Z,0.13
2023-02-11T17:04:21.507Z,0.15
2023-02-11T17:06:49.907Z,0.07
2023-02-11T17:09:21.475Z,-0.09
2023-02-11T17:11:50.345Z,-0.32
2023-02-11T17:14:21.089Z,-0.49
2023-02-11T17:16:50.067Z,-0.60
2023-02-11T17:19:22.003Z,-0.72
2023-02-11T17:21:52.531Z,-0.95
2023-02-11T17:24:22.036Z,-0.73
2023-02-11T17:26:53.282Z,-0.83
2023-02-11T17:29:24.661Z,-0.85
2023-02-11T17:31:53.835Z,-1.21
2023-02-11T17:34:23.886Z,-1.20
2023-02-11T17:36:52.393Z,-1.19
2023-02-11T17:39:21.268Z,-1.18
2023-02-11T17:41:49.649Z,-1.09
2023-02-11T17:44:18.356Z,-0.99
2023-02-11T17:46:48.156Z,-0.88
2023-02-11T17:49:16.615Z,-1.07
2023-02-11T17:51:47.934Z,-1.03
2023-02-11T17:54:19.202Z,-1.07
2023-02-11T17:56:50.977Z,-1.09
2023-02-11T17:59:19.521Z,-0.91
2023-02-11T18:01:49.954Z,-0.98
2023-02-11T18:04:20.394Z,-0.91
2023-02-11T18:06:50.433Z,-0.85
2023-02-11T18:09:18.789Z,-0.94
2023-02-11T18:11:48.511Z,-0.64
2023-02-11T18:14:17.724Z,-0.44
2023-02-11T18:16:47.578Z,-0.39
2023-02-11T18:19:17.367Z,-0.45
2023-02-11T18:21:50.476Z,-0.44
2023-02-11T18:24:19.323Z,-0.52
2023-02-11T18:26:47.597Z,-0.68
2023-02-11T18:29:16.001Z,-0.75
2023-02-11T18:31:45.350Z,-1.01
2023-02-11T18:34:14.308Z,-1.07
2023-02-11T18:36:44.217Z,-0.98
2023-02-11T18:39:12.424Z,-1.12
2023-02-11T18:41:42.340Z,-1.23
2023-02-11T18:44:12.047Z,-1.30
2023-02-11T18:46:40.193Z,-1.33
2023-02-11T18:49:09.990Z,-1.45
2023-02-11T18:51:38.187Z,-1.53
2023-02-11T18:54:07.752Z,-1.62
2023-02-11T18:56:35.898Z,-1.62
2023-02-11T18:59:04.536Z,-1.54
2023-02-11T19:01:34.921Z,-1.55
2023-02-11T19:04:05.001Z,-1.62
2023-02-11T19:06:34.768Z,-1.75
2023-02-11T19:09:05.826Z,-1.78
2023-02-11T19:11:54.494Z,-1.58
2023-02-11T19:14:25.097Z,-1.57
2023-02-11T19:16:58.957Z,-1.43
2023-02-11T19:19:30.103Z,-1.28
2023-02-11T19:21:59.324Z,-1.11
2023-02-11T19:24:29.119Z,-1.26
2023-02-11T19:27:00.830Z,-1.28
2023-02-11T19:29:35.431Z,-1.35
2023-02-11T19:32:05.952Z,-1.22
2023-02-11T19:34:41.004Z,-1.30
2023-02-11T19:37:10.970Z,-1.32
2023-02-11T19:39:39.631Z,-1.20
2023-02-11T19:42:09.178Z,-1.11
2023-02-11T19:44:37.497Z,-1.20
2023-02-11T19:47:07.073Z,-1.24
2023-02-11T19:49:35.544Z,-1.24
2023-02-11T19:52:04.051Z,-1.31
2023-02-11T19:54:32.533Z,-1.38
2023-02-11T19:57:00.794Z,-1.42
2023-02-11T19:59:30.739Z,-1.60
2023-02-11T20:02:00.724Z,-1.67
2023-02-11T20:04:32.268Z,-1.86
2023-02-11T20:07:00.634Z,-1.91
2023-02-11T20:09:29.158Z,-1.94
2023-02-11T20:11:57.648Z,-2.08
2023-02-11T20:14:27.945Z,-2.16
2023-02-11T20:16:58.288Z,-2.17
2023-02-11T20:19:26.876Z,-2.31
2023-02-11T20:21:56.495Z,-2.43
2023-02-11T20:24:26.029Z,-2.50
2023-02-11T20:26:56.181Z,-2.37
2023-02-11T20:29:27.806Z,-2.22
2023-02-11T20:31:57.635Z,-2.23
2023-02-11T20:34:26.218Z,-2.08
2023-02-11T20:36:55.116Z,-1.93
2023-02-11T20:39:25.018Z,-1.88
2023-02-11T20:41:54.596Z,-1.83
2023-02-11T20:44:23.607Z,-1.92
2023-02-11T20:46:54.328Z,-1.93
2023-02-11T20:49:25.791Z,-1.93
2023-02-11T20:51:54.522Z,-2.01
2023-02-11T20:54:24.052Z,-1.99
2023-02-11T20:56:53.841Z,-1.92
2023-02-11T20:59:22.743Z,-1.94
2023-02-11T21:01:55.495Z,-1.93
2023-02-11T21:04:26.924Z,-1.90
2023-02-11T21:06:57.612Z,-1.79
2023-02-11T21:09:28.932Z,-1.84
2023-02-11T21:11:57.692Z,-1.76
2023-02-11T21:14:27.323Z,-1.73
2023-02-11T21:16:55.802Z,-1.69
2023-02-11T21:19:25.828Z,-1.67
2023-02-11T21:21:55.312Z,-1.68
2023-02-11T21:24:25.734Z,-1.72
2023-02-11T21:26:53.953Z,-1.80
2023-02-11T21:29:22.175Z,-1.93
2023-02-11T21:31:51.521Z,-1.97
2023-02-11T21:34:20.231Z,-2.00
2023-02-11T21:36:51.295Z,-1.96
2023-02-11T21:39:20.423Z,-1.92
2023-02-11T21:41:48.621Z,-1.99
2023-02-11T21:44:16.805Z,-2.07
2023-02-11T21:46:46.132Z,-2.19
2023-02-11T21:49:14.468Z,-2.12
2023-02-11T21:51:42.848Z,-2.16
2023-02-11T21:54:13.703Z,-2.12
2023-02-11T21:56:42.063Z,-2.05
2023-02-11T21:59:14.015Z,-1.97
2023-02-11T22:01:42.570Z,-1.88
2023-02-11T22:04:11.384Z,-1.70
2023-02-11T22:06:39.921Z,-1.71
2023-02-11T22:09:11.011Z,-1.59
2023-02-11T22:11:40.814Z,-1.54
2023-02-11T22:14:09.396Z,-1.51
2023-02-11T22:16:37.785Z,-1.55
2023-02-11T22:19:07.563Z,-1.40
2023-02-11T22:21:36.078Z,-1.27
2023-02-11T22:24:04.848Z,-1.19
2023-02-11T22:26:33.329Z,-1.19
2023-02-11T22:29:03.437Z,-1.14
2023-02-11T22:31:34.807Z,-1.09
2023-02-11T22:34:04.781Z,-1.10
2023-02-11T22:36:34.978Z,-1.08
2023-02-11T22:39:04.049Z,-1.14
2023-02-11T22:41:33.721Z,-1.21
2023-02-11T22:44:03.234Z,-1.14
2023-02-11T22:46:31.793Z,-0.99
2023-02-11T22:49:00.093Z,-0.88
2023-02-11T22:51:30.044Z,-0.87
2023-02-11T22:53:59.836Z,-0.84
2023-02-11T22:56:29.131Z,-0.79
2023-02-11T22:58:58.814Z,-0.72
2023-02-11T23:01:29.217Z,-0.79
2023-02-11T23:03:58.109Z,-0.83
2023-02-11T23:06:26.413Z,-0.82
2023-02-11T23:08:54.699Z,-0.86
2023-02-11T23:11:25.333Z,-0.90
2023-02-11T23:13:55.124Z,-0.80
2023-02-11T23:16:26.781Z,-0.86
2023-02-11T23:18:56.666Z,-0.85
2023-02-11T23:21:27.205Z,-0.87
2023-02-11T23:23:57.101Z,-0.88
2023-02-11T23:26:26.276Z,-0.81
2023-02-11T23:28:54.695Z,-0.70
2023-02-11T23:31:25.567Z,-0.70
2023-02-11T23:33:54.219Z,-0.67
2023-02-11T23:36:24.691Z,-0.65
2023-02-11T23:38:53.427Z,-0.64
2023-02-11T23:41:22.673Z,-0.68
2023-02-11T23:43:52.089Z,-0.67
2023-02-11T23:46:21.931Z,-0.61
2023-02-11T23:48:50.491Z,-0.65
2023-02-11T23:51:19.674Z,-0.66
2023-02-11T23:53:50.484Z,-0.63
2023-02-11T23:56:21.502Z,-0.55
2023-02-11T23:58:50.072Z,-0.60
